Time;durP1;ratioP1;P1;durP2;ratioP2;P2;SDS_P1;SDS_P2;PMS_P1;PMS_P2;Temp;Humidity;BMP_temperature;BMP_pressure;BME280_temperature;BME280_humidity;BME280_pressure;Samples;Min_cycle;Max_cycle;Signal;HPM_P1;HPM_P2
2022/03/08 00:00:17;;;;;;;11.60;6.67;;;;;;;0.33;68.60;100031.31;1683768;84;21160;-65
2022/03/08 00:02:46;;;;;;;10.97;6.83;;;;;;;0.35;68.64;100042.50;1684619;84;21590;-69
2022/03/08 00:05:13;;;;;;;8.23;6.10;;;;;;;0.43;68.49;100037.91;1685453;84;21003;-69
2022/03/08 00:07:41;;;;;;;11.60;7.83;;;;;;;0.44;68.34;100040.41;1705398;84;21050;-65
2022/03/08 00:10:09;;;;;;;10.93;7.97;;;;;;;0.47;68.23;100039.30;1685128;84;21110;-64
2022/03/08 00:12:36;;;;;;;13.13;8.33;;;;;;;0.47;68.25;100037.53;1718497;82;21120;-67
2022/03/08 00:15:11;;;;;;;;;;;;;;;0.49;68.26;100038.23;1688151;82;21146;-65
2022/03/08 00:17:39;;;;;;;14.30;9.97;;;;;;;0.48;68.48;100032.63;1685225;82;20209;-65
2022/03/08 00:20:09;;;;;;;15.43;11.20;;;;;;;0.41;68.56;100034.10;1699807;82;22184;-68
2022/03/08 00:22:37;;;;;;;13.73;10.87;;;;;;;0.42;68.68;100029.22;1692495;81;21076;-66
2022/03/08 00:25:08;;;;;;;15.83;11.33;;;;;;;0.39;68.87;100028.16;1667149;84;21042;-67
2022/03/08 00:27:36;;;;;;;12.93;11.50;;;;;;;0.35;68.90;100021.52;1681796;84;21608;-71
2022/03/08 00:30:06;;;;;;;16.57;12.43;;;;;;;0.29;69.09;100027.29;1669998;84;21102;-65
2022/03/08 00:32:33;;;;;;;17.57;12.17;;;;;;;0.24;69.30;100027.66;1680374;84;21121;-66
2022/03/08 00:35:01;;;;;;;18.30;14.33;;;;;;;0.21;69.47;100029.70;1694454;84;21022;-65
2022/03/08 00:37:28;;;;;;;17.67;11.80;;;;;;;0.18;69.58;100032.12;1714104;83;21042;-65
2022/03/08 00:39:56;;;;;;;20.73;13.97;;;;;;;0.14;69.90;100032.85;1713969;84;21140;-70
2022/03/08 00:42:26;;;;;;;17.90;14.17;;;;;;;0.08;70.08;100036.48;1675669;85;21043;-66
2022/03/08 00:44:53;;;;;;;23.33;16.87;;;;;;;0.01;70.30;100034.84;1647143;85;21077;-65
2022/03/08 00:47:21;;;;;;;25.53;16.73;;;;;;;0.00;70.47;100033.20;1676829;85;21158;-64
2022/03/08 00:49:48;;;;;;;21.57;15.67;;;;;;;0.02;70.59;100028.66;1656745;85;22303;-65
2022/03/08 00:52:15;;;;;;;29.70;21.00;;;;;;;0.02;70.74;100028.66;1655009;84;21137;-64
2022/03/08 00:54:42;;;;;;;43.00;25.03;;;;;;;-0.48;70.68;99943.30;1641673;85;21065;-66
2022/03/08 00:57:10;;;;;;;53.73;35.83;;;;;;;0.07;70.81;100022.52;1656589;84;21077;-71
2022/03/08 00:59:37;;;;;;;70.37;42.97;;;;;;;0.13;70.83;100029.90;1656534;84;21054;-71
2022/03/08 01:02:04;;;;;;;64.50;41.57;;;;;;;0.12;71.02;100022.98;1679277;83;21038;-73
2022/03/08 01:04:31;;;;;;;77.87;46.73;;;;;;;0.15;71.05;100021.42;1666727;83;21022;-64
2022/03/08 01:07:01;;;;;;;70.20;43.80;;;;;;;0.14;71.07;100021.05;1704405;83;21077;-66
2022/03/08 01:09:27;;;;;;;74.93;43.70;;;;;;;0.17;71.14;100022.12;1671929;83;21576;-64
2022/03/08 01:11:56;;;;;;;69.87;43.20;;;;;;;0.17;71.25;100018.64;1683037;84;21045;-65
2022/03/08 01:14:23;;;;;;;72.47;45.13;;;;;;;0.16;71.35;100020.45;1684478;84;21038;-65
2022/03/08 01:16:50;;;;;;;69.77;47.43;;;;;;;0.11;71.56;100009.51;1671078;83;21149;-64
2022/03/08 01:19:19;;;;;;;67.00;46.83;;;;;;;0.11;71.70;100006.89;1684021;84;21070;-65
2022/03/08 01:21:46;;;;;;;69.13;44.33;;;;;;;0.12;71.82;100010.36;1685521;83;21352;-65
2022/03/08 01:24:13;;;;;;;71.70;48.30;;;;;;;0.12;71.85;100004.63;1685221;84;21519;-66
2022/03/08 01:26:42;;;;;;;74.57;50.70;;;;;;;0.09;71.90;100006.19;1686236;83;21126;-64
2022/03/08 01:29:09;;;;;;;67.97;47.53;;;;;;;0.08;72.19;100005.03;1686045;84;21641;-66
2022/03/08 01:31:36;;;;;;;81.97;53.83;;;;;;;0.06;72.30;100007.78;1693960;84;21086;-71
2022/03/08 01:34:03;;;;;;;79.03;52.10;;;;;;;0.03;72.34;100004.09;1682313;83;21687;-63
2022/03/08 01:36:30;;;;;;;80.10;56.03;;;;;;;0.04;72.53;100005.77;1652896;85;21034;-65
2022/03/08 01:38:57;;;;;;;79.93;52.90;;;;;;;0.03;72.54;99998.03;1676269;85;21033;-66
2022/03/08 01:41:24;;;;;;;82.85;54.75;;;;;;;0.05;72.71;100001.35;1653070;85;21003;-65
2022/03/08 01:43:52;;;;;;;80.20;54.20;;;;;;;0.07;72.79;100002.05;1678624;84;21055;-64
2022/03/08 01:46:18;;;;;;;88.90;57.80;;;;;;;0.05;72.88;100003.48;1660569;83;21241;-65
2022/03/08 01:48:46;;;;;;;80.67;53.63;;;;;;;0.04;73.00;100000.53;1666183;85;21079;-64
2022/03/08 01:51:14;;;;;;;90.10;57.87;;;;;;;0.03;73.16;100001.47;1679658;85;21065;-64
2022/03/08 01:53:54;;;;;;;82.17;53.00;;;;;;;0.05;73.32;100005.28;1728497;81;21169;-63
2022/03/08 01:56:21;;;;;;;;;;;;;;;0.05;73.44;99996.93;1727162;81;20970;-63
2022/03/08 01:58:47;;;;;;;80.00;47.97;;;;;;;0.05;73.59;100001.35;1737161;81;20174;-64
2022/03/08 02:01:14;;;;;;;;;;;;;;;-0.01;73.83;100002.69;1723629;81;21168;-63
2022/03/08 02:03:41;;;;;;;62.60;40.03;;;;;;;-0.02;74.16;99999.70;1701972;82;20425;-64
2022/03/08 02:06:07;;;;;;;63.75;42.15;;;;;;;-0.07;74.54;99999.28;1709141;82;21555;-67
2022/03/08 02:08:36;;;;;;;51.67;34.57;;;;;;;-0.09;74.63;100000.72;1709010;82;21318;-70
2022/03/08 02:11:02;;;;;;;;;;;;;;;-0.05;74.89;100002.60;1728831;82;21081;-69
2022/03/08 02:13:30;;;;;;;40.13;28.10;;;;;;;-0.04;74.92;100004.25;1680986;84;20119;-65
2022/03/08 02:15:58;;;;;;;38.98;25.00;;;;;;;-0.07;75.27;100009.77;1676654;84;21594;-65
2022/03/08 02:18:24;;;;;;;27.10;21.17;;;;;;;-0.06;75.65;100006.17;1694074;83;21518;-65
2022/03/08 02:20:52;;;;;;;27.93;19.00;;;;;;;-0.05;75.93;100007.84;1694892;83;21074;-63
2022/03/08 02:23:23;;;;;;;21.93;16.47;;;;;;;-0.07;76.27;100005.34;1695480;83;21050;-74
2022/03/08 02:25:49;;;;;;;16.57;13.68;;;;;;;-0.09;76.77;100006.45;1695037;83;21126;-64
2022/03/08 02:28:17;;;;;;;14.38;11.93;;;;;;;-0.09;77.50;100009.06;1694614;83;21106;-65
2022/03/08 02:30:44;;;;;;;11.20;9.87;;;;;;;-0.09;77.69;100010.37;1694690;83;21085;-67
2022/03/08 02:33:11;;;;;;;16.30;10.80;;;;;;;-0.15;78.07;100006.47;1693777;83;21046;-64
2022/03/08 02:35:39;;;;;;;12.13;9.17;;;;;;;-0.18;78.46;100008.03;1694280;83;21578;-70
2022/03/08 02:38:07;;;;;;;13.70;9.83;;;;;;;-0.16;78.93;100008.73;1697725;83;21074;-64
2022/03/08 02:40:38;;;;;;;12.13;9.87;;;;;;;-0.17;79.73;100004.92;1721671;82;21479;-65
2022/03/08 02:43:08;;;;;;;10.80;9.27;;;;;;;-0.21;79.56;100009.58;1724550;83;21114;-67
2022/03/08 02:45:35;;;;;;;9.83;7.33;;;;;;;-0.22;80.04;100007.45;1700716;83;21150;-69
2022/03/08 02:48:03;;;;;;;9.97;7.40;;;;;;;-0.23;80.41;100004.95;1717023;82;21343;-67
2022/03/08 02:50:30;;;;;;;9.67;7.70;;;;;;;-0.23;80.51;100005.80;1710920;83;21040;-68
2022/03/08 02:52:58;;;;;;;12.73;9.05;;;;;;;-0.27;81.14;100000.92;1696143;83;21585;-65
2022/03/08 02:55:29;;;;;;;9.77;8.30;;;;;;;-0.32;81.01;99998.70;1694562;83;21118;-68
2022/03/08 02:57:57;;;;;;;11.23;8.17;;;;;;;-0.33;81.07;100006.19;1659385;84;21110;-65
2022/03/08 03:00:28;;;;;;;8.33;7.27;;;;;;;-0.32;81.32;100006.56;1659149;85;21680;-72
2022/03/08 03:02:55;;;;;;;13.90;8.20;;;;;;;-0.30;81.33;100004.64;1659666;86;21492;-64
2022/03/08 03:05:22;;;;;;;9.33;7.33;;;;;;;-0.31;81.54;100002.97;1672833;85;21140;-64
2022/03/08 03:07:49;;;;;;;10.23;8.47;;;;;;;-0.32;81.50;100000.02;1674161;85;21089;-64
2022/03/08 03:10:18;;;;;;;;;;;;;;;-0.28;81.67;100007.96;1674006;85;21121;-65
2022/03/08 03:12:46;;;;;;;8.87;7.07;;;;;;;-0.27;81.79;100003.55;1700806;83;20124;-66
2022/03/08 03:15:18;;;;;;;8.07;7.27;;;;;;;-0.33;81.81;100000.95;1711359;83;21614;-66
2022/03/08 03:17:46;;;;;;;9.63;6.23;;;;;;;-0.39;82.21;99997.54;1714023;83;21030;-65
2022/03/08 03:20:18;;;;;;;7.83;7.07;;;;;;;-0.41;82.17;99995.53;1697531;83;21061;-63
2022/03/08 03:22:47;;;;;;;10.07;7.30;;;;;;;-0.42;82.18;100000.40;1678949;83;21575;-72
2022/03/08 03:25:15;;;;;;;11.40;8.37;;;;;;;-0.44;82.37;99999.70;1694319;84;21027;-64
2022/03/08 03:27:43;;;;;;;8.07;7.20;;;;;;;-0.39;82.48;99998.84;1694386;84;21014;-68
2022/03/08 03:30:14;;;;;;;8.77;7.73;;;;;;;-0.34;82.79;99994.08;1694315;84;21109;-64
2022/03/08 03:32:41;;;;;;;9.07;7.60;;;;;;;-0.30;82.50;99994.16;1694222;84;21575;-67
2022/03/08 03:35:10;;;;;;;9.53;7.07;;;;;;;-0.29;82.56;99996.30;1693114;84;21065;-67
2022/03/08 03:37:37;;;;;;;8.60;6.93;;;;;;;-0.27;82.64;99989.14;1694514;84;22171;-64
2022/03/08 03:40:07;;;;;;;12.33;8.07;;;;;;;-0.24;82.63;99991.03;1703165;84;21111;-64
2022/03/08 03:42:35;;;;;;;10.03;7.17;;;;;;;-0.20;82.49;99993.74;1694223;84;21070;-78
2022/03/08 03:45:02;;;;;;;11.53;7.57;;;;;;;-0.17;82.62;99997.06;1683880;84;21080;-65
2022/03/08 03:47:30;;;;;;;7.07;6.10;;;;;;;-0.17;82.37;99999.68;1693243;85;21648;-65
2022/03/08 03:49:57;;;;;;;7.00;6.27;;;;;;;-0.20;82.51;99998.16;1693792;84;21600;-65
2022/03/08 03:52:24;;;;;;;8.27;6.47;;;;;;;-0.21;82.50;100005.20;1693896;84;21654;-66
2022/03/08 03:54:51;;;;;;;7.53;5.57;;;;;;;-0.17;82.65;100004.92;1704544;84;21018;-65
2022/03/08 03:57:17;;;;;;;7.58;6.25;;;;;;;-0.18;82.58;100000.17;1661056;85;21163;-64
2022/03/08 03:59:44;;;;;;;7.67;6.43;;;;;;;-0.16;82.66;99997.42;1658108;86;21214;-66
2022/03/08 04:02:11;;;;;;;8.23;6.12;;;;;;;-0.14;82.63;99999.44;1683398;85;21109;-64
2022/03/08 04:04:38;;;;;;;7.37;5.43;;;;;;;-0.11;82.62;100006.56;1684936;85;21510;-65
2022/03/08 04:07:05;;;;;;;5.22;4.67;;;;;;;-0.06;82.56;100000.92;1685151;85;21074;-65
2022/03/08 04:09:32;;;;;;;6.37;5.10;;;;;;;-0.07;82.27;100002.72;1683111;85;21029;-66
2022/03/08 04:12:00;;;;;;;5.90;5.30;;;;;;;-0.09;82.16;99999.89;1670743;84;21081;-76
2022/03/08 04:14:27;;;;;;;;;;;;;;;-0.11;82.42;100001.81;1663814;86;21078;-64
2022/03/08 04:16:55;;;;;;;;;;;;;;;-0.11;82.44;100003.13;1652087;86;20145;-70
2022/03/08 04:19:23;;;;;;;6.53;4.17;;;;;;;-0.15;82.44;100006.93;1647954;86;20205;-64
2022/03/08 04:21:50;;;;;;;4.75;4.33;;;;;;;-0.22;82.65;100006.14;1650004;87;21649;-67
2022/03/08 04:24:19;;;;;;;4.43;3.97;;;;;;;-0.17;82.76;100013.63;1668733;84;21035;-63
2022/03/08 04:26:45;;;;;;;3.87;3.53;;;;;;;-0.15;82.55;100018.27;1699238;84;21077;-65
2022/03/08 04:29:12;;;;;;;7.80;4.10;;;;;;;-0.11;82.53;100010.98;1698466;84;21075;-66
2022/03/08 04:31:39;;;;;;;4.97;4.47;;;;;;;-0.09;82.30;100009.06;1690721;84;21088;-64
2022/03/08 04:34:07;;;;;;;4.13;3.60;;;;;;;-0.10;82.19;100008.21;1691955;83;21080;-64
2022/03/08 04:36:34;;;;;;;;;;;;;;;-0.10;82.10;100011.31;1727400;83;21544;-66
2022/03/08 04:39:01;;;;;;;3.67;3.27;;;;;;;-0.10;81.75;100020.48;1720022;82;20107;-64
2022/03/08 04:41:29;;;;;;;3.53;3.17;;;;;;;-0.16;81.78;100021.83;1719685;83;21096;-72
2022/03/08 04:43:56;;;;;;;3.57;3.27;;;;;;;-0.21;81.87;100016.98;1689038;84;21065;-66
2022/03/08 04:46:22;;;;;;;;;;;;;;;-0.22;81.61;100019.23;1662755;84;21456;-66
2022/03/08 04:48:51;;;;;;;4.33;3.47;;;;;;;-0.32;81.42;100011.80;1689612;84;20243;-70
2022/03/08 04:51:18;;;;;;;2.57;2.37;;;;;;;-0.29;81.30;100023.80;1677719;85;21113;-64
2022/03/08 04:53:45;;;;;;;4.00;3.40;;;;;;;-0.28;81.37;100022.86;1677392;85;21563;-65
2022/03/08 04:56:13;;;;;;;3.50;3.20;;;;;;;-0.29;81.22;100022.00;1694443;83;21110;-64
2022/03/08 04:58:40;;;;;;;2.53;2.33;;;;;;;-0.28;80.87;100019.75;1683659;84;21016;-66
2022/03/08 05:01:07;;;;;;;3.15;2.95;;;;;;;-0.24;80.90;100019.84;1666924;84;21541;-63
2022/03/08 05:03:37;;;;;;;3.17;2.87;;;;;;;-0.22;80.67;100024.48;1692577;84;21074;-65
2022/03/08 05:06:06;;;;;;;3.13;2.93;;;;;;;-0.12;80.64;100025.03;1711487;84;21111;-65
2022/03/08 05:08:33;;;;;;;2.77;2.57;;;;;;;-0.06;79.87;100024.05;1712324;84;21112;-65
2022/03/08 05:11:01;;;;;;;3.57;3.30;;;;;;;0.03;79.59;100024.23;1692076;84;21069;-65
2022/03/08 05:13:30;;;;;;;4.83;3.90;;;;;;;0.12;79.85;100031.33;1711472;83;21334;-70
2022/03/08 05:15:59;;;;;;;7.50;5.03;;;;;;;0.35;80.18;100025.45;1685741;84;21338;-65
2022/03/08 05:18:25;;;;;;;;;;;;;;;0.83;79.61;100018.74;1682247;85;21197;-65
2022/03/08 05:20:52;;;;;;;3.73;3.40;;;;;;;1.26;77.42;100013.66;1683853;84;20171;-66
2022/03/08 05:23:19;;;;;;;;;;;;;;;1.47;76.41;100024.05;1669676;85;21058;-66
2022/03/08 05:25:46;;;;;;;3.75;3.45;;;;;;;1.80;75.99;100014.11;1654220;86;20151;-65
2022/03/08 05:28:14;;;;;;;3.53;3.23;;;;;;;2.05;74.19;100018.77;1652639;86;21094;-65
2022/03/08 05:30:41;;;;;;;4.93;3.73;;;;;;;2.13;72.29;100012.33;1680721;84;21144;-67
2022/03/08 05:33:10;;;;;;;3.67;3.37;;;;;;;2.06;71.79;100021.75;1684652;84;21037;-66
2022/03/08 05:35:38;;;;;;;3.07;2.80;;;;;;;1.89;71.85;100022.47;1704524;83;21152;-66
2022/03/08 05:38:04;;;;;;;5.70;4.43;;;;;;;1.73;72.63;100021.24;1709358;83;21064;-65
2022/03/08 05:40:32;;;;;;;;;;;;;;;1.49;73.09;100026.91;1710078;83;21081;-71
2022/03/08 05:43:01;;;;;;;3.57;3.30;;;;;;;1.32;74.00;100028.90;1721267;83;20108;-65
2022/03/08 05:45:29;;;;;;;4.27;3.87;;;;;;;1.09;74.98;100025.66;1689778;84;21608;-65
2022/03/08 05:47:56;;;;;;;5.47;3.70;;;;;;;0.94;75.17;100026.05;1677767;84;21064;-64
2022/03/08 05:50:22;;;;;;;4.97;4.53;;;;;;;0.84;76.01;100030.42;1684743;85;21156;-64
2022/03/08 05:52:51;;;;;;;4.13;3.63;;;;;;;0.80;76.24;100029.03;1686004;84;21569;-64
2022/03/08 05:55:18;;;;;;;7.53;4.93;;;;;;;0.75;76.52;100036.00;1670060;84;21122;-65
2022/03/08 05:57:46;;;;;;;4.27;3.53;;;;;;;0.70;76.78;100026.87;1710752;83;21528;-65
2022/03/08 06:00:14;;;;;;;5.78;4.20;;;;;;;0.68;77.44;100030.08;1705631;83;21382;-71
2022/03/08 06:02:41;;;;;;;5.07;4.67;;;;;;;0.67;77.58;100035.81;1678177;85;21056;-66
2022/03/08 06:05:09;;;;;;;5.93;5.13;;;;;;;0.65;78.05;100036.92;1676339;85;21053;-66
2022/03/08 06:07:37;;;;;;;5.80;4.10;;;;;;;0.61;77.93;100033.72;1677103;85;21042;-64
2022/03/08 06:10:08;;;;;;;4.83;4.47;;;;;;;0.54;78.12;100034.72;1686289;85;21025;-73
2022/03/08 06:12:36;;;;;;;6.37;4.47;;;;;;;0.51;78.36;100035.00;1687121;84;21112;-67
2022/03/08 06:15:05;;;;;;;5.70;4.90;;;;;;;0.49;78.77;100038.23;1697647;84;21105;-64
2022/03/08 06:20:14;;;;;;;5.00;4.50;;;;;;;0.58;79.11;100036.14;1700458;83;21112;-71
2022/03/08 06:22:40;;;;;;;;;;;;;;;0.61;79.09;100027.17;1697422;82;21099;-65
2022/03/08 06:25:08;;;;;;;6.10;5.57;;;;;;;0.63;79.03;100036.22;1736548;81;20112;-64
2022/03/08 06:27:35;;;;;;;6.20;5.60;;;;;;;0.62;79.55;100037.99;1731932;81;21570;-68
2022/03/08 06:30:04;;;;;;;;;;;;;;;0.69;80.31;100044.87;1740782;81;21138;-63
2022/03/08 06:32:31;;;;;;;8.70;6.23;;;;;;;0.71;79.97;100042.94;1738328;82;20148;-66
2022/03/08 06:34:58;;;;;;;8.23;6.33;;;;;;;0.68;80.02;100047.13;1730649;81;21071;-64
2022/03/08 06:37:26;;;;;;;9.30;6.47;;;;;;;0.63;80.52;100052.78;1746551;81;21129;-71
2022/03/08 06:39:53;;;;;;;8.20;7.27;;;;;;;0.63;80.60;100052.78;1745287;81;21051;-64
2022/03/08 06:42:20;;;;;;;4.67;4.37;;;;;;;0.67;80.94;100051.55;1731419;81;21039;-65
2022/03/08 06:44:47;;;;;;;6.17;5.53;;;;;;;0.67;81.27;100049.42;1736983;80;20989;-65
2022/03/08 06:47:13;;;;;;;8.10;5.75;;;;;;;0.61;81.24;100054.70;1725257;81;21088;-63
2022/03/08 06:49:42;;;;;;;6.03;5.47;;;;;;;0.60;81.37;100056.14;1731825;82;21041;-64
2022/03/08 06:52:10;;;;;;;5.87;5.33;;;;;;;0.61;81.60;100055.20;1728659;81;21534;-74
2022/03/08 06:54:38;;;;;;;8.23;4.57;;;;;;;0.61;81.47;100053.89;1730520;81;21024;-65
2022/03/08 06:57:05;;;;;;;5.37;4.60;;;;;;;0.60;81.74;100053.52;1738203;81;21080;-71
2022/03/08 06:59:32;;;;;;;5.33;4.93;;;;;;;0.55;82.10;100052.12;1729381;81;21068;-69
2022/03/08 07:01:58;;;;;;;;;;;;;;;0.45;82.60;100055.16;1740926;81;20993;-66
2022/03/08 07:04:25;;;;;;;6.40;5.13;;;;;;;0.37;83.00;100048.44;1738100;81;20149;-72
2022/03/08 07:06:53;;;;;;;6.93;5.53;;;;;;;0.30;83.27;100052.53;1737133;81;21056;-64
2022/03/08 07:09:19;;;;;;;;;;;;;;;0.27;83.61;100048.88;1730697;81;21047;-65
2022/03/08 07:11:46;;;;;;;7.63;5.07;;;;;;;0.28;83.70;100052.66;1732712;81;20143;-64
2022/03/08 07:14:17;;;;;;;5.83;5.23;;;;;;;0.30;83.93;100056.46;1756848;81;21203;-66
2022/03/08 07:16:46;;;;;;;3.90;3.70;;;;;;;0.37;84.01;100049.75;1736751;81;21059;-64
2022/03/08 07:19:14;;;;;;;4.67;4.27;;;;;;;0.44;83.97;100049.59;1740841;81;21080;-66
2022/03/08 07:21:42;;;;;;;3.67;3.37;;;;;;;0.47;83.95;100057.66;1736889;81;21020;-65
2022/03/08 07:24:09;;;;;;;3.03;2.83;;;;;;;0.40;84.05;100057.37;1730851;81;21032;-69
2022/03/08 07:26:36;;;;;;;3.70;2.90;;;;;;;0.31;84.51;100054.20;1738347;81;21106;-65
2022/03/08 07:29:03;;;;;;;;;;;;;;;0.27;84.97;100048.39;1739769;81;21022;-66
2022/03/08 07:31:32;;;;;;;2.83;2.43;;;;;;;0.29;85.25;100051.70;1738180;81;21059;-71
2022/03/08 07:34:02;;;;;;;1.30;1.20;;;;;;;0.31;85.71;100050.27;1736912;81;21142;-65
2022/03/08 07:36:31;;;;;;;1.67;0.90;;;;;;;0.36;84.96;100055.48;1688023;83;21006;-67
2022/03/08 07:39:00;;;;;;;0.60;0.50;;;;;;;0.45;84.63;100045.98;1727814;81;21094;-68
2022/03/08 07:41:27;;;;;;;0.93;0.60;;;;;;;0.58;84.31;100044.01;1727357;81;21000;-64
2022/03/08 07:43:55;;;;;;;1.03;0.30;;;;;;;0.68;83.87;100040.57;1727134;81;21075;-64
2022/03/08 07:46:23;;;;;;;1.23;0.20;;;;;;;0.70;83.35;100048.67;1658641;84;21070;-66
2022/03/08 07:48:54;;;;;;;0.60;0.20;;;;;;;0.66;83.07;100044.66;1727867;81;21032;-65
2022/03/08 07:51:23;;;;;;;1.40;0.63;;;;;;;0.63;82.77;100044.09;1730733;81;21559;-73
2022/03/08 07:53:50;;;;;;;0.20;0.20;;;;;;;0.59;82.45;100042.20;1734826;81;21587;-68
2022/03/08 07:56:18;;;;;;;0.73;0.20;;;;;;;0.57;82.16;100045.45;1727215;81;21101;-64
2022/03/08 07:58:46;;;;;;;0.20;0.20;;;;;;;0.61;82.16;100044.22;1723877;81;21618;-70
2022/03/08 08:01:14;;;;;;;0.20;0.20;;;;;;;0.66;81.32;100046.43;1732699;81;21009;-67
2022/03/08 08:03:42;;;;;;;0.57;0.20;;;;;;;0.66;81.21;100040.73;1727065;81;21008;-67
2022/03/08 08:06:10;;;;;;;0.30;0.30;;;;;;;0.81;81.99;100041.20;1733887;81;21070;-70
2022/03/08 08:08:38;;;;;;;0.37;0.20;;;;;;;1.03;81.71;100040.14;1734933;81;21007;-67
2022/03/08 08:11:06;;;;;;;0.43;0.40;;;;;;;1.28;81.60;100047.17;1705358;82;21073;-73
2022/03/08 08:13:37;;;;;;;0.87;0.30;;;;;;;1.51;81.30;100047.78;1689559;84;21040;-66
2022/03/08 08:16:05;;;;;;;0.77;0.30;;;;;;;1.68;79.81;100047.59;1676922;84;21581;-63
2022/03/08 08:18:34;;;;;;;0.43;0.40;;;;;;;1.78;79.17;100051.03;1697244;82;21061;-77
2022/03/08 08:21:04;;;;;;;0.40;0.37;;;;;;;1.87;78.73;100044.13;1705299;83;21069;-67
2022/03/08 08:23:32;;;;;;;0.73;0.47;;;;;;;1.90;78.07;100047.77;1705455;83;21542;-65
2022/03/08 08:27:14;;;;;;;0.63;0.47;;;;;;;1.83;76.76;100054.08;1790633;79;22242;-68
2022/03/08 08:29:42;;;;;;;1.47;0.97;;;;;;;1.69;76.14;100045.29;1738697;80;21007;-67
2022/03/08 08:32:11;;;;;;;1.10;0.60;;;;;;;1.68;77.20;100043.65;1759984;80;21046;-66
2022/03/08 08:34:39;;;;;;;1.80;0.80;;;;;;;1.84;76.89;100049.65;1717857;80;21006;-64
2022/03/08 08:37:07;;;;;;;0.80;0.70;;;;;;;1.88;75.09;100043.14;1701494;83;21053;-69
2022/03/08 08:39:35;;;;;;;1.90;0.50;;;;;;;1.80;75.45;100045.16;1697850;83;21100;-74
2022/03/08 08:42:07;;;;;;;0.63;0.63;;;;;;;1.76;75.77;100042.46;1697720;83;21541;-64
2022/03/08 08:44:34;;;;;;;0.50;0.20;;;;;;;1.68;75.85;100037.90;1692073;83;21021;-64
2022/03/08 08:47:02;;;;;;;1.57;0.50;;;;;;;1.63;76.13;100048.48;1668587;84;21259;-68
2022/03/08 08:49:31;;;;;;;0.90;0.90;;;;;;;1.57;76.07;100041.16;1668712;84;21037;-72
2022/03/08 08:51:59;;;;;;;1.10;0.83;;;;;;;1.51;76.62;100051.23;1672834;84;21072;-67
2022/03/08 08:54:28;;;;;;;2.07;0.90;;;;;;;1.54;77.12;100048.34;1667804;84;21080;-65
2022/03/08 08:56:55;;;;;;;1.30;0.90;;;;;;;1.57;77.52;100043.29;1675980;83;22004;-72
2022/03/08 08:59:21;;;;;;;0.80;0.80;;;;;;;1.51;77.95;100046.47;1689258;83;21090;-66
2022/03/08 09:01:48;;;;;;;1.95;1.15;;;;;;;1.46;78.23;100049.49;1692155;83;21560;-65
2022/03/08 09:04:14;;;;;;;;;;;;;;;1.40;78.75;100055.30;1695386;83;22164;-70
2022/03/08 09:06:42;;;;;;;1.60;1.50;;;;;;;1.28;78.43;100053.28;1685720;83;20142;-72
2022/03/08 09:09:09;;;;;;;2.08;1.87;;;;;;;1.16;78.87;100053.03;1691502;83;21065;-65
2022/03/08 09:11:38;;;;;;;0.97;0.97;;;;;;;1.19;79.71;100053.23;1693098;83;21084;-66
2022/03/08 09:14:06;;;;;;;1.47;1.37;;;;;;;1.25;78.85;100056.17;1692390;84;21093;-66
2022/03/08 09:16:33;;;;;;;1.73;1.50;;;;;;;1.18;77.79;100048.97;1707469;83;21577;-65
2022/03/08 09:19:01;;;;;;;2.20;2.00;;;;;;;1.14;78.03;100053.16;1688261;83;21500;-63
2022/03/08 09:21:28;;;;;;;1.73;1.60;;;;;;;1.15;77.93;100048.77;1693339;83;21559;-66
2022/03/08 09:23:55;;;;;;;2.12;2.00;;;;;;;1.23;76.73;100048.91;1658018;83;22071;-65
2022/03/08 09:26:21;;;;;;;2.50;1.97;;;;;;;1.24;75.67;100059.74;1691257;84;22490;-66
2022/03/08 09:28:49;;;;;;;2.37;2.10;;;;;;;1.24;75.05;100052.36;1654941;84;21132;-65
2022/03/08 09:31:15;;;;;;;1.57;1.47;;;;;;;1.29;75.13;100055.42;1668127;84;21044;-68
2022/03/08 09:33:42;;;;;;;2.07;1.87;;;;;;;1.42;75.55;100048.60;1669110;84;21610;-66
2022/03/08 09:36:11;;;;;;;2.37;1.53;;;;;;;1.65;74.64;100050.48;1724667;83;21085;-66
2022/03/08 09:38:39;;;;;;;2.20;1.33;;;;;;;1.85;73.58;100046.06;1708508;83;21128;-68
2022/03/08 09:41:05;;;;;;;;;;;;;;;1.98;70.93;100045.76;1711373;83;21027;-70
2022/03/08 09:43:37;;;;;;;1.15;1.05;;;;;;;2.00;69.69;100042.03;1709026;83;20134;-65
2022/03/08 09:46:05;;;;;;;1.10;0.80;;;;;;;1.93;70.26;100047.50;1699771;83;21030;-65
2022/03/08 09:48:32;;;;;;;3.13;1.07;;;;;;;1.85;68.78;100057.89;1703855;83;21022;-66
2022/03/08 09:51:04;;;;;;;1.30;1.20;;;;;;;1.78;68.81;100067.30;1661114;85;21035;-65
2022/03/08 09:53:31;;;;;;;1.50;1.40;;;;;;;1.68;67.54;100065.98;1717080;83;21062;-70
2022/03/08 09:56:00;;;;;;;1.90;1.20;;;;;;;1.53;67.67;100056.36;1660202;85;21149;-66
2022/03/08 09:58:27;;;;;;;1.73;1.10;;;;;;;1.36;68.39;100058.67;1685499;84;21054;-67
2022/03/08 10:00:55;;;;;;;1.50;1.35;;;;;;;1.23;69.41;100076.48;1698078;83;21029;-65
2022/03/08 10:03:43;;;;;;;0.73;0.73;;;;;;;1.14;70.25;100070.23;1690118;84;21128;-71
2022/03/08 10:06:11;;;;;;;1.02;0.72;;;;;;;1.12;70.26;100064.28;1672670;83;21084;-65
2022/03/08 10:08:40;;;;;;;1.20;0.67;;;;;;;1.07;70.39;100068.27;1689631;83;21606;-66
2022/03/08 10:11:11;;;;;;;;;;;;;;;0.99;69.34;100073.37;1691424;83;21022;-66
2022/03/08 10:13:46;;;;;;;2.60;0.60;;;;;;;0.93;69.39;100067.67;1648870;87;20157;-72
2022/03/08 10:16:41;;;;;;;1.93;1.83;;;;;;;0.85;70.02;100070.14;1643402;86;21112;-64
2022/03/08 10:18:57;;;;;;;1.50;1.00;;;;;;;0.88;70.38;100072.48;1646570;86;21061;-63
2022/03/08 10:21:32;;;;;;;1.30;1.20;;;;;;;0.96;70.51;100077.06;1643416;86;21560;-66
2022/03/08 10:24:15;;;;;;;2.40;0.70;;;;;;;1.01;70.62;100104.25;1673360;84;22190;-72
2022/03/08 10:26:52;;;;;;;1.07;0.60;;;;;;;0.79;74.98;100095.58;1682665;84;21071;-68
2022/03/08 10:29:33;;;;;;;0.70;0.70;;;;;;;0.33;76.68;100083.26;1681047;84;21616;-65
2022/03/08 10:32:19;;;;;;;0.30;0.30;;;;;;;0.11;77.02;100078.96;1680248;84;21646;-68
2022/03/08 10:34:50;;;;;;;1.07;0.50;;;;;;;-0.03;78.09;100072.25;1659922;84;21097;-72
2022/03/08 10:37:23;;;;;;;1.10;1.00;;;;;;;0.00;78.30;100073.81;1668014;84;21027;-63
2022/03/08 10:39:56;;;;;;;1.17;1.00;;;;;;;0.05;77.36;100070.80;1666587;84;21046;-64
2022/03/08 10:42:30;;;;;;;1.00;0.73;;;;;;;0.14;77.51;100073.48;1665723;85;21592;-65
2022/03/08 10:45:16;;;;;;;0.80;0.80;;;;;;;0.28;77.82;100068.88;1633496;86;21530;-65
2022/03/08 10:47:46;;;;;;;1.07;0.93;;;;;;;0.44;77.67;100067.13;1665048;85;21030;-64
2022/03/08 10:50:16;;;;;;;2.33;1.43;;;;;;;0.47;77.63;100067.69;1639098;86;21522;-65
2022/03/08 10:52:47;;;;;;;1.43;1.33;;;;;;;0.51;77.71;100067.78;1676579;84;21071;-67
2022/03/08 10:55:30;;;;;;;1.93;1.73;;;;;;;0.55;77.23;100069.66;1681027;84;21636;-67
2022/03/08 10:58:04;;;;;;;3.53;1.00;;;;;;;0.48;77.35;100070.65;1661876;85;21066;-66
2022/03/08 11:00:38;;;;;;;1.63;1.53;;;;;;;0.44;75.97;100073.67;1678892;84;21091;-66
2022/03/08 11:03:11;;;;;;;1.03;1.03;;;;;;;0.48;76.59;100065.41;1678653;84;21063;-67
2022/03/08 11:05:45;;;;;;;1.53;1.13;;;;;;;0.64;77.76;100058.85;1677706;84;21114;-66
2022/03/08 11:08:14;;;;;;;2.07;1.93;;;;;;;0.83;78.19;100058.95;1671522;85;21277;-67
2022/03/08 11:10:42;;;;;;;1.17;1.07;;;;;;;0.87;78.03;100062.97;1674060;84;21555;-63
2022/03/08 11:13:14;;;;;;;1.70;1.53;;;;;;;0.93;78.22;100065.05;1666994;84;21057;-66
2022/03/08 11:15:45;;;;;;;1.30;0.70;;;;;;;0.94;77.67;100065.41;1665019;86;21116;-64
2022/03/08 11:18:16;;;;;;;0.70;0.50;;;;;;;0.91;76.64;100070.92;1665988;85;21026;-68
2022/03/08 11:20:47;;;;;;;0.37;0.37;;;;;;;0.82;73.31;100071.70;1677900;85;21104;-65
2022/03/08 11:23:14;;;;;;;0.33;0.30;;;;;;;0.72;72.49;100068.23;1679557;84;21077;-66
2022/03/08 11:25:45;;;;;;;2.03;0.30;;;;;;;0.62;70.46;100072.58;1666435;84;21037;-64
2022/03/08 11:28:13;;;;;;;1.03;0.93;;;;;;;0.58;71.33;100081.19;1674621;84;21125;-66
2022/03/08 11:30:48;;;;;;;0.77;0.40;;;;;;;0.60;72.93;100079.75;1647261;85;21124;-64
2022/03/08 11:33:26;;;;;;;1.17;0.80;;;;;;;0.63;71.89;100076.88;1664896;85;21088;-64
2022/03/08 11:36:31;;;;;;;0.60;0.30;;;;;;;0.54;70.74;100081.10;1664532;85;21073;-65
2022/03/08 11:39:21;;;;;;;0.63;0.40;;;;;;;0.46;69.33;100087.00;1667292;85;21565;-66
2022/03/08 11:42:20;;;;;;;0.40;0.37;;;;;;;0.43;70.96;100085.94;1670344;85;21530;-68